createdAt,value
2022-09-07T00:01:15.151Z,3.92
2022-09-07T00:04:03.735Z,3.30
2022-09-07T00:06:44.474Z,4.18
2022-09-07T00:09:32.380Z,3.72
2022-09-07T00:12:13.382Z,3.58
2022-09-07T00:15:02.453Z,3.40
2022-09-07T00:17:46.098Z,3.20
2022-09-07T00:20:34.412Z,4.25
2022-09-07T00:23:15.122Z,4.30
2022-09-07T00:26:11.235Z,3.40
2022-09-07T00:28:55.159Z,3.35
2022-09-07T00:31:42.757Z,3.25
2022-09-07T00:34:23.197Z,2.90
2022-09-07T00:37:12.251Z,3.20
2022-09-07T00:39:53.366Z,3.72
2022-09-07T00:42:40.307Z,3.40
2022-09-07T00:45:26.152Z,3.60
2022-09-07T00:48:22.230Z,3.53
2022-09-07T00:54:25.746Z,3.83
2022-09-07T00:57:06.692Z,3.47
2022-09-07T00:59:59.287Z,3.35
2022-09-07T01:02:40.307Z,3.55
2022-09-07T01:06:09.347Z,3.10
2022-09-07T01:08:53.031Z,3.08
2022-09-07T01:11:50.969Z,3.25
2022-09-07T01:14:40.656Z,3.40
2022-09-07T01:17:37.912Z,3.55
2022-09-07T01:20:31.815Z,3.03
2022-09-07T01:23:57.316Z,3.40
2022-09-07T01:29:46.432Z,3.33
2022-09-07T01:36:11.298Z,3.38
2022-09-07T01:39:03.964Z,3.35
2022-09-07T01:42:08.316Z,3.15
2022-09-07T01:44:52.255Z,2.90
2022-09-07T01:48:03.328Z,3.13
2022-09-07T01:51:15.192Z,3.80
2022-09-07T01:54:14.224Z,3.65
2022-09-07T01:57:00.861Z,3.78
2022-09-07T01:59:55.281Z,2.92
2022-09-07T02:03:00.997Z,3.80
2022-09-07T02:06:02.019Z,3.17
2022-09-07T02:09:06.158Z,3.78
2022-09-07T02:11:55.260Z,4.28
2022-09-07T02:14:44.147Z,3.40
2022-09-07T02:17:46.291Z,3.85
2022-09-07T02:20:33.745Z,2.78
2022-09-07T02:23:26.296Z,3.30
2022-09-07T02:26:10.600Z,4.57
2022-09-07T02:28:57.418Z,3.58
2022-09-07T02:31:38.165Z,3.72
2022-09-07T02:34:26.304Z,3.08
2022-09-07T02:37:10.876Z,3.42
2022-09-07T02:40:00.448Z,3.03
2022-09-07T02:42:43.616Z,3.65
2022-09-07T02:45:32.354Z,2.88
2022-09-07T02:48:22.934Z,3.60
2022-09-07T02:51:57.322Z,3.22
2022-09-07T02:55:05.442Z,3.65
2022-09-07T02:58:00.303Z,3.25
2022-09-07T03:00:51.127Z,3.00
2022-09-07T03:04:05.161Z,3.10
2022-09-07T03:06:51.767Z,4.47
2022-09-07T03:09:44.324Z,3.50
2022-09-07T03:12:26.299Z,3.05
2022-09-07T03:15:17.774Z,2.80
2022-09-07T03:18:00.667Z,2.58
2022-09-07T03:20:48.323Z,3.35
2022-09-07T03:23:29.558Z,3.38
2022-09-07T03:26:30.982Z,3.72
2022-09-07T03:29:13.171Z,3.30
2022-09-07T03:32:00.315Z,3.10
2022-09-07T03:34:42.200Z,4.40
2022-09-07T03:37:31.529Z,2.85
2022-09-07T03:40:14.414Z,3.20
2022-09-07T03:43:03.342Z,3.40
2022-09-07T03:45:45.305Z,3.20
2022-09-07T03:48:32.521Z,2.92
2022-09-07T03:51:28.597Z,3.17
2022-09-07T03:54:17.324Z,2.97
2022-09-07T03:56:58.283Z,3.05
2022-09-07T03:59:45.680Z,3.10
2022-09-07T04:02:26.385Z,2.95
2022-09-07T04:05:13.332Z,3.28
2022-09-07T04:07:56.040Z,3.45
2022-09-07T04:10:47.141Z,3.63
2022-09-07T04:13:30.068Z,3.28
2022-09-07T04:16:28.393Z,3.20
2022-09-07T04:19:10.398Z,3.20
2022-09-07T04:21:57.756Z,3.10
2022-09-07T04:24:38.704Z,2.97
2022-09-07T04:27:26.377Z,3.58
2022-09-07T04:30:07.618Z,2.85
2022-09-07T04:32:54.809Z,3.70
2022-09-07T04:38:23.353Z,2.83
2022-09-07T04:41:16.294Z,2.97
2022-09-07T04:44:05.441Z,3.10
2022-09-07T04:46:46.316Z,2.88
2022-09-07T04:49:36.326Z,2.72
2022-09-07T04:52:31.240Z,3.00
2022-09-07T04:55:20.178Z,2.88
2022-09-07T04:58:02.079Z,2.75
2022-09-07T05:00:50.394Z,3.45
2022-09-07T05:03:31.684Z,2.47
2022-09-07T05:06:19.440Z,2.92
2022-09-07T05:09:01.884Z,3.65
2022-09-07T05:11:48.724Z,2.70
2022-09-07T05:14:30.388Z,2.85
2022-09-07T05:17:19.395Z,2.80
2022-09-07T05:20:01.326Z,3.33
2022-09-07T05:22:48.430Z,2.72
2022-09-07T05:25:30.496Z,3.30
2022-09-07T05:28:21.751Z,3.42
2022-09-07T05:31:19.439Z,3.97
2022-09-07T05:37:10.344Z,3.28
2022-09-07T05:39:58.408Z,3.22
2022-09-07T05:45:51.436Z,3.05
2022-09-07T05:48:33.861Z,3.15
2022-09-07T05:51:28.293Z,3.55
2022-09-07T05:54:17.670Z,3.30
2022-09-07T05:56:58.458Z,3.28
2022-09-07T05:59:47.831Z,2.90
2022-09-07T06:02:28.913Z,3.17
2022-09-07T06:05:17.575Z,2.65
2022-09-07T06:07:58.412Z,3.10
2022-09-07T06:10:46.404Z,3.47
2022-09-07T06:13:28.129Z,3.60
2022-09-07T06:16:18.500Z,2.65
2022-09-07T06:18:59.425Z,3.00
2022-09-07T06:21:51.429Z,3.28
2022-09-07T06:24:32.434Z,3.15
2022-09-07T06:27:20.432Z,3.35
2022-09-07T06:30:02.404Z,3.90
2022-09-07T06:32:54.326Z,3.90
2022-09-07T06:35:35.823Z,3.55
2022-09-07T06:38:23.150Z,2.90
2022-09-07T06:44:19.506Z,2.97
2022-09-07T06:49:55.316Z,3.65
2022-09-07T06:55:55.783Z,2.92
2022-09-07T06:58:42.819Z,3.33
2022-09-07T07:01:28.711Z,2.92
2022-09-07T07:06:59.363Z,2.58
2022-09-07T07:09:51.956Z,3.25
2022-09-07T07:15:24.457Z,2.63
2022-09-07T07:18:20.483Z,2.75
2022-09-07T07:21:13.834Z,2.67
2022-09-07T07:24:08.201Z,3.28
2022-09-07T07:26:55.885Z,4.20
2022-09-07T07:32:26.119Z,3.35
2022-09-07T07:35:08.788Z,3.60
2022-09-07T07:44:11.334Z,2.90
2022-09-07T07:46:55.408Z,2.97
2022-09-07T07:49:43.429Z,2.85
2022-09-07T07:55:48.062Z,2.58
2022-09-07T07:58:39.336Z,2.13
2022-09-07T08:01:23.501Z,2.38
2022-09-07T08:04:10.704Z,2.60
2022-09-07T08:06:52.477Z,2.50
2022-09-07T08:09:40.350Z,2.00
2022-09-07T08:12:29.675Z,2.08
2022-09-07T08:15:19.782Z,2.95
2022-09-07T08:18:01.505Z,3.10
2022-09-07T08:20:49.451Z,3.22
2022-09-07T08:23:31.040Z,2.80
2022-09-07T08:26:20.673Z,3.83
2022-09-07T08:29:03.004Z,2.80
2022-09-07T08:31:51.391Z,3.70
2022-09-07T08:34:32.438Z,3.63
2022-09-07T08:37:19.395Z,3.17
2022-09-07T08:40:03.817Z,3.28
2022-09-07T08:42:59.126Z,2.65
2022-09-07T08:46:03.697Z,3.53
2022-09-07T08:48:51.779Z,3.05
2022-09-07T08:52:00.336Z,3.20
2022-09-07T08:54:52.940Z,2.60
2022-09-07T08:57:37.920Z,2.88
2022-09-07T09:00:27.350Z,3.00
2022-09-07T09:06:37.357Z,1.98
2022-09-07T09:09:43.696Z,3.42
2022-09-07T09:12:37.486Z,2.92
2022-09-07T09:15:54.523Z,2.55
2022-09-07T09:19:02.190Z,3.20
2022-09-07T09:21:43.493Z,3.10
2022-09-07T09:24:41.580Z,3.60
2022-09-07T09:27:23.778Z,2.95
2022-09-07T09:30:27.365Z,3.63
2022-09-07T09:33:26.135Z,3.15
2022-09-07T09:36:31.417Z,3.28
2022-09-07T09:39:42.729Z,3.15
2022-09-07T09:42:43.192Z,3.53
2022-09-07T09:45:28.562Z,2.67
2022-09-07T09:48:18.412Z,3.47
2022-09-07T09:56:55.541Z,3.42
2022-09-07T10:00:04.222Z,2.47
2022-09-07T10:05:54.479Z,3.60
2022-09-07T10:08:37.478Z,2.85
2022-09-07T10:12:05.101Z,3.30
2022-09-07T10:14:36.982Z,2.88
2022-09-07T10:17:45.715Z,3.08
2022-09-07T10:20:29.479Z,2.78
2022-09-07T10:23:28.385Z,2.50
2022-09-07T10:26:28.649Z,2.85
2022-09-07T10:29:37.422Z,2.25
2022-09-07T10:32:43.546Z,2.28
2022-09-07T10:35:56.842Z,2.22
2022-09-07T10:38:42.853Z,2.30
2022-09-07T10:41:55.788Z,2.13
2022-09-07T10:45:17.506Z,2.25
2022-09-07T10:48:20.443Z,2.45
2022-09-07T10:51:13.823Z,2.05
2022-09-07T10:54:33.062Z,2.05
2022-09-07T10:57:58.708Z,2.30
2022-09-07T11:00:58.790Z,2.13
2022-09-07T11:03:53.095Z,2.40
2022-09-07T11:09:52.612Z,2.42
2022-09-07T11:12:42.607Z,2.33
2022-09-07T11:15:36.207Z,2.28
2022-09-07T11:18:42.552Z,2.90
2022-09-07T11:28:20.063Z,2.47
2022-09-07T11:31:05.614Z,2.22
2022-09-07T11:34:24.255Z,2.80
2022-09-07T11:37:20.498Z,2.50
2022-09-07T11:40:26.497Z,2.92
2022-09-07T11:43:24.541Z,2.53
2022-09-07T11:46:19.641Z,2.20
2022-09-07T11:49:04.689Z,2.70
2022-09-07T11:52:05.626Z,2.25
2022-09-07T11:55:04.323Z,2.70
2022-09-07T11:58:04.554Z,2.28
2022-09-07T12:01:12.581Z,1.95
2022-09-07T12:03:59.687Z,3.63
2022-09-07T12:07:08.731Z,2.13
2022-09-07T12:10:37.893Z,2.85
2022-09-07T12:13:53.919Z,2.58
2022-09-07T12:17:08.323Z,2.50
2022-09-07T12:20:22.842Z,3.22
2022-09-07T12:23:10.638Z,2.10
2022-09-07T12:25:59.528Z,3.33
2022-09-07T12:28:40.958Z,2.60
2022-09-07T12:31:58.293Z,2.50
2022-09-07T12:34:39.575Z,2.65
2022-09-07T12:37:35.714Z,2.63
2022-09-07T12:40:37.358Z,2.17
2022-09-07T12:43:25.997Z,2.90
2022-09-07T12:46:08.795Z,2.78
2022-09-07T12:49:13.285Z,2.28
2022-09-07T12:52:31.549Z,1.88
2022-09-07T12:55:29.806Z,2.15
2022-09-07T12:58:18.578Z,2.70
2022-09-07T13:01:53.762Z,2.28
2022-09-07T13:04:46.294Z,2.22
2022-09-07T13:07:44.038Z,2.38
2022-09-07T13:10:23.675Z,2.10
2022-09-07T13:17:15.971Z,1.73
2022-09-07T13:19:58.413Z,1.90
2022-09-07T13:22:40.581Z,1.77
2022-09-07T13:25:31.535Z,1.95
2022-09-07T13:28:47.684Z,2.28
2022-09-07T13:32:14.177Z,2.13
2022-09-07T13:35:10.650Z,1.90
2022-09-07T13:38:04.727Z,2.33
2022-09-07T13:40:52.215Z,2.47
2022-09-07T13:43:41.764Z,2.08
2022-09-07T13:47:07.738Z,1.65
2022-09-07T13:50:18.131Z,2.28
2022-09-07T13:53:30.811Z,1.65
2022-09-07T13:56:22.580Z,2.20
2022-09-07T13:59:03.648Z,1.80
2022-09-07T14:01:56.295Z,2.10
2022-09-07T14:04:51.016Z,1.27
2022-09-07T14:07:38.549Z,1.38
2022-09-07T14:10:25.145Z,1.65
2022-09-07T14:13:19.717Z,1.53
2022-09-07T14:16:05.980Z,2.08
2022-09-07T14:18:52.643Z,1.70
2022-09-07T14:21:33.624Z,1.33
2022-09-07T14:24:42.602Z,1.70
2022-09-07T14:27:44.677Z,1.73
2022-09-07T14:30:43.376Z,1.70
2022-09-07T14:33:24.718Z,2.50
2022-09-07T14:36:39.265Z,2.08
2022-09-07T14:39:16.488Z,1.52
2022-09-07T14:42:07.621Z,2.08
2022-09-07T14:44:49.498Z,1.88
2022-09-07T14:47:40.994Z,2.40
2022-09-07T14:50:30.873Z,1.90
2022-09-07T14:53:35.142Z,1.95
2022-09-07T14:56:47.017Z,1.80
2022-09-07T14:59:41.799Z,1.70
2022-09-07T15:02:42.711Z,2.45
2022-09-07T15:05:32.828Z,2.28
2022-09-07T15:08:27.683Z,2.67
2022-09-07T15:14:27.770Z,1.90
2022-09-07T15:20:44.096Z,2.57
2022-09-07T15:23:25.839Z,2.90
2022-09-07T15:29:21.750Z,2.00
2022-09-07T15:32:12.992Z,2.20
2022-09-07T15:34:55.915Z,2.53
2022-09-07T15:41:20.690Z,1.60
2022-09-07T15:44:00.659Z,2.20
2022-09-07T15:47:41.975Z,2.20
2022-09-07T15:49:51.818Z,1.63
2022-09-07T15:52:46.444Z,2.00
2022-09-07T15:55:27.964Z,1.77
2022-09-07T15:58:14.671Z,2.45
2022-09-07T16:04:06.103Z,2.05
2022-09-07T16:06:48.270Z,1.70
2022-09-07T16:09:37.947Z,1.35
2022-09-07T16:15:29.384Z,2.30
2022-09-07T16:18:11.525Z,2.22
2022-09-07T16:20:58.662Z,2.22
2022-09-07T16:23:39.831Z,1.90
2022-09-07T16:26:31.999Z,2.05
2022-09-07T16:29:12.720Z,2.22
2022-09-07T16:35:02.403Z,2.13
2022-09-07T16:40:53.873Z,2.15
2022-09-07T16:43:41.611Z,1.90
2022-09-07T16:46:25.790Z,1.88
2022-09-07T16:49:14.766Z,1.50
2022-09-07T16:51:55.715Z,1.67
2022-09-07T16:54:44.107Z,2.00
2022-09-07T16:57:25.796Z,1.80
2022-09-07T17:00:16.229Z,1.58
2022-09-07T17:02:56.744Z,1.90
2022-09-07T17:05:46.716Z,1.80
2022-09-07T17:08:27.828Z,2.08
2022-09-07T17:11:21.619Z,1.55
2022-09-07T17:14:06.558Z,1.60
2022-09-07T17:16:53.742Z,1.85
2022-09-07T17:19:35.176Z,2.17
2022-09-07T17:22:22.615Z,2.13
2022-09-07T17:25:03.821Z,1.73
2022-09-07T17:27:51.024Z,3.20
2022-09-07T17:30:32.930Z,3.25
2022-09-07T17:33:22.177Z,5.95
2022-09-07T17:36:02.802Z,4.50
2022-09-07T17:41:56.811Z,3.88
2022-09-07T17:44:45.085Z,5.13
2022-09-07T17:47:25.766Z,4.78
2022-09-07T17:50:14.228Z,4.93
2022-09-07T17:53:07.622Z,3.13
2022-09-07T17:55:56.681Z,3.10
2022-09-07T17:58:37.769Z,3.22
2022-09-07T18:01:27.155Z,3.45
2022-09-07T18:04:07.782Z,2.50
2022-09-07T18:06:54.674Z,1.90
2022-09-07T18:09:35.746Z,2.42
2022-09-07T18:12:23.143Z,2.17
2022-09-07T18:15:04.100Z,2.10
2022-09-07T18:17:52.617Z,1.65
2022-09-07T18:20:34.435Z,1.95
2022-09-07T18:23:23.649Z,2.42
2022-09-07T18:26:06.237Z,1.65
2022-09-07T18:29:13.196Z,1.55
2022-09-07T18:31:59.889Z,2.22
2022-09-07T18:34:50.370Z,1.60
2022-09-07T18:37:32.348Z,1.75
2022-09-07T18:40:21.351Z,1.70
2022-09-07T18:43:04.225Z,1.88
2022-09-07T18:45:51.753Z,1.45
2022-09-07T18:48:33.596Z,1.90
2022-09-07T18:51:24.329Z,1.52
2022-09-07T18:54:18.670Z,1.50
2022-09-07T18:57:07.059Z,2.35
2022-09-07T18:59:48.846Z,1.83
2022-09-07T19:02:36.290Z,2.17
2022-09-07T19:08:23.659Z,1.40
2022-09-07T19:11:11.785Z,1.83
2022-09-07T19:14:10.707Z,1.85
2022-09-07T19:16:51.947Z,2.22
2022-09-07T19:19:41.095Z,1.33
2022-09-07T19:22:24.323Z,1.80
2022-09-07T19:25:12.711Z,1.77
2022-09-07T19:27:53.810Z,1.60
2022-09-07T19:30:41.225Z,1.13
2022-09-07T19:33:22.479Z,2.20
2022-09-07T19:36:14.849Z,1.85
2022-09-07T19:38:55.804Z,1.40
2022-09-07T19:41:47.710Z,1.60
2022-09-07T19:44:31.133Z,2.25
2022-09-07T19:47:18.761Z,2.05
2022-09-07T19:49:59.837Z,1.83
2022-09-07T19:52:54.167Z,1.75
2022-09-07T19:55:42.843Z,2.00
2022-09-07T19:58:23.724Z,1.60
2022-09-07T20:01:20.117Z,1.95
2022-09-07T20:04:08.794Z,2.90
2022-09-07T20:06:58.063Z,1.70
2022-09-07T20:09:38.746Z,2.00
2022-09-07T20:12:29.820Z,1.55
2022-09-07T20:15:10.732Z,2.10
2022-09-07T20:17:58.791Z,2.38
2022-09-07T20:20:41.143Z,1.83
2022-09-07T20:23:29.025Z,1.73
2022-09-07T20:26:13.993Z,2.28
2022-09-07T20:29:25.668Z,1.85
2022-09-07T20:35:15.895Z,1.83
2022-09-07T20:37:58.130Z,1.58
2022-09-07T20:40:45.399Z,1.60
2022-09-07T20:43:26.814Z,1.92
2022-09-07T20:46:14.994Z,1.67
2022-09-07T20:48:57.131Z,1.60
2022-09-07T20:51:44.665Z,1.52
2022-09-07T20:54:35.248Z,1.30
2022-09-07T20:57:15.890Z,2.13
2022-09-07T21:00:04.610Z,1.63
2022-09-07T21:02:46.984Z,1.95
2022-09-07T21:05:36.097Z,1.60
2022-09-07T21:08:30.354Z,1.92
2022-09-07T21:11:24.850Z,1.85
2022-09-07T21:14:10.703Z,1.88
2022-09-07T21:16:58.846Z,1.85
2022-09-07T21:19:40.375Z,1.20
2022-09-07T21:22:27.823Z,2.35
2022-09-07T21:25:09.956Z,1.33
2022-09-07T21:27:58.074Z,1.83
2022-09-07T21:33:27.114Z,2.00
2022-09-07T21:36:17.678Z,1.58
2022-09-07T21:39:12.599Z,1.95
2022-09-07T21:41:56.957Z,2.30
2022-09-07T21:44:47.141Z,1.63
2022-09-07T21:47:29.650Z,2.25
2022-09-07T21:50:18.231Z,3.15
2022-09-07T21:53:12.787Z,3.05
2022-09-07T21:56:10.174Z,1.90
2022-09-07T22:01:38.812Z,1.77
2022-09-07T22:04:20.789Z,1.73
2022-09-07T22:07:12.068Z,1.95
2022-09-07T22:09:57.535Z,2.58
2022-09-07T22:12:46.178Z,2.17
2022-09-07T22:15:27.908Z,1.70
2022-09-07T22:18:20.563Z,2.10
2022-09-07T22:21:12.411Z,1.95
2022-09-07T22:24:06.813Z,1.83
2022-09-07T22:26:47.944Z,1.85
2022-09-07T22:29:37.364Z,1.73
2022-09-07T22:32:18.800Z,1.77
2022-09-07T22:35:06.186Z,1.73
2022-09-07T22:37:46.916Z,1.92
2022-09-07T22:40:36.247Z,1.88
2022-09-07T22:43:17.237Z,1.75
2022-09-07T22:46:06.091Z,1.73
2022-09-07T22:48:47.924Z,2.20
2022-09-07T22:51:39.071Z,2.03
2022-09-07T22:54:33.839Z,1.95
2022-09-07T22:57:22.851Z,2.23
2022-09-07T23:00:03.964Z,1.90
2022-09-07T23:02:52.201Z,1.92
2022-09-07T23:05:34.346Z,2.35
2022-09-07T23:08:23.558Z,1.92
2022-09-07T23:11:09.947Z,2.13
2022-09-07T23:14:03.038Z,1.58
2022-09-07T23:16:44.032Z,2.13
2022-09-07T23:19:31.826Z,1.83
2022-09-07T23:22:12.951Z,1.95
2022-09-07T23:25:00.901Z,2.00
2022-09-07T23:27:47.838Z,2.08
2022-09-07T23:30:36.893Z,3.22
2022-09-07T23:33:17.939Z,1.95
2022-09-07T23:36:09.892Z,2.08
2022-09-07T23:38:52.497Z,2.60
2022-09-07T23:41:40.421Z,1.98
2022-09-07T23:44:20.965Z,1.77
2022-09-07T23:47:09.075Z,1.90
2022-09-07T23:49:51.295Z,2.47
2022-09-07T23:52:37.865Z,1.83
2022-09-07T23:55:25.000Z,2.45
2022-09-07T23:58:08.249Z,2.20
